createdAt,value
2022-12-12T00:01:30.210Z,2.05
2022-12-12T00:03:59.099Z,2.03
2022-12-12T00:06:29.529Z,2.04
2022-12-12T00:08:57.907Z,2.02
2022-12-12T00:11:27.298Z,2.03
2022-12-12T00:13:55.699Z,2.02
2022-12-12T00:16:25.613Z,2.03
2022-12-12T00:18:54.303Z,2.02
2022-12-12T00:21:26.316Z,2.01
2022-12-12T00:23:56.326Z,2.02
2022-12-12T00:26:27.419Z,2.02
2022-12-12T00:28:56.159Z,2.03
2022-12-12T00:31:24.689Z,2.01
2022-12-12T00:33:53.184Z,2.03
2022-12-12T00:36:24.781Z,2.03
2022-12-12T00:38:55.950Z,2.03
2022-12-12T00:41:24.728Z,2.03
2022-12-12T00:43:53.173Z,2.04
2022-12-12T00:46:24.085Z,2.04
2022-12-12T00:48:58.525Z,2.04
2022-12-12T00:51:29.647Z,2.04
2022-12-12T00:54:00.837Z,2.04
2022-12-12T00:56:30.894Z,2.05
2022-12-12T00:58:59.525Z,2.04
2022-12-12T01:01:30.587Z,2.04
2022-12-12T01:03:59.855Z,2.03
2022-12-12T01:06:28.951Z,2.02
2022-12-12T01:08:59.056Z,2.04
2022-12-12T01:11:27.769Z,2.06
2022-12-12T01:13:56.778Z,2.04
2022-12-12T01:16:26.099Z,2.07
2022-12-12T01:18:54.565Z,2.07
2022-12-12T01:21:23.324Z,2.09
2022-12-12T01:23:51.959Z,2.09
2022-12-12T01:26:24.262Z,2.09
2022-12-12T01:28:53.780Z,2.09
2022-12-12T01:31:22.840Z,2.09
2022-12-12T01:33:51.232Z,2.09
2022-12-12T01:36:23.486Z,2.09
2022-12-12T01:38:56.891Z,2.08
2022-12-12T01:41:27.391Z,2.07
2022-12-12T01:43:56.187Z,2.06
2022-12-12T01:46:52.131Z,2.04
2022-12-12T01:49:25.847Z,2.04
2022-12-12T01:51:58.887Z,2.07
2022-12-12T01:54:31.749Z,2.08
2022-12-12T01:57:05.218Z,2.06
2022-12-12T01:59:35.818Z,2.06
2022-12-12T02:02:04.300Z,2.07
2022-12-12T02:04:33.007Z,2.06
2022-12-12T02:07:01.572Z,2.06
2022-12-12T02:09:29.951Z,2.03
2022-12-12T02:12:00.551Z,2.02
2022-12-12T02:14:33.188Z,2.02
2022-12-12T02:17:25.445Z,2.01
2022-12-12T02:20:45.746Z,1.98
2022-12-12T02:23:55.270Z,1.95
2022-12-12T02:27:20.792Z,1.93
2022-12-12T02:30:13.405Z,1.92
2022-12-12T02:33:19.908Z,1.90
2022-12-12T02:36:04.266Z,1.91
2022-12-12T02:38:46.632Z,1.92
2022-12-12T02:41:22.144Z,1.92
2022-12-12T02:44:06.342Z,1.91
2022-12-12T02:46:42.241Z,1.91
2022-12-12T02:49:17.961Z,1.91
2022-12-12T02:51:47.388Z,1.91
2022-12-12T02:54:17.932Z,1.90
2022-12-12T02:56:51.713Z,1.92
2022-12-12T02:59:27.681Z,1.93
2022-12-12T03:02:33.076Z,1.90
2022-12-12T03:05:43.985Z,1.88
2022-12-12T03:08:29.309Z,1.86
2022-12-12T03:11:02.350Z,1.88
2022-12-12T03:13:43.618Z,1.88
2022-12-12T03:16:26.459Z,1.88
2022-12-12T03:19:00.195Z,1.88
2022-12-12T03:21:40.826Z,1.87
2022-12-12T03:24:18.051Z,1.82
2022-12-12T03:26:52.202Z,1.83
2022-12-12T03:29:27.324Z,1.85
2022-12-12T03:32:02.010Z,1.83
2022-12-12T03:34:37.565Z,1.85
2022-12-12T03:37:12.900Z,1.87
2022-12-12T03:39:47.526Z,1.90
2022-12-12T03:42:22.176Z,1.88
2022-12-12T03:44:54.599Z,1.92
2022-12-12T03:47:28.913Z,1.92
2022-12-12T03:50:03.606Z,1.94
2022-12-12T03:52:38.966Z,1.94
2022-12-12T03:55:14.583Z,1.94
2022-12-12T03:57:52.108Z,1.95
2022-12-12T04:00:21.064Z,1.95
2022-12-12T04:02:56.332Z,1.95
2022-12-12T04:05:29.871Z,1.95
2022-12-12T04:08:09.032Z,1.97
2022-12-12T04:11:05.208Z,1.95
2022-12-12T04:13:44.471Z,1.95
2022-12-12T04:16:16.795Z,1.93
2022-12-12T04:18:54.538Z,1.93
2022-12-12T04:21:54.135Z,1.95
2022-12-12T04:24:31.401Z,1.94
2022-12-12T04:27:08.524Z,1.93
2022-12-12T04:29:42.737Z,1.93
2022-12-12T04:32:18.438Z,1.92
2022-12-12T04:34:53.430Z,1.92
2022-12-12T04:37:33.997Z,1.92
2022-12-12T04:40:09.235Z,1.89
2022-12-12T04:42:44.008Z,1.89
2022-12-12T04:45:16.767Z,1.87
2022-12-12T04:47:49.521Z,1.88
2022-12-12T04:50:18.591Z,1.88
2022-12-12T04:52:51.698Z,1.86
2022-12-12T04:55:25.120Z,1.84
2022-12-12T04:57:55.555Z,1.86
2022-12-12T05:00:25.519Z,1.79
2022-12-12T05:03:03.689Z,1.82
2022-12-12T05:05:41.491Z,1.85
2022-12-12T05:08:16.054Z,1.86
2022-12-12T05:10:48.244Z,1.83
2022-12-12T05:13:19.819Z,1.83
2022-12-12T05:15:49.910Z,1.82
2022-12-12T05:18:18.755Z,1.82
2022-12-12T05:20:47.093Z,1.82
2022-12-12T05:23:15.624Z,1.82
2022-12-12T05:25:45.265Z,1.82
2022-12-12T05:28:13.568Z,1.81
2022-12-12T05:30:42.048Z,1.82
2022-12-12T05:33:10.291Z,1.83
2022-12-12T05:35:38.580Z,1.83
2022-12-12T05:38:06.828Z,1.83
2022-12-12T05:40:44.934Z,1.85
2022-12-12T05:43:14.614Z,1.85
2022-12-12T05:45:43.026Z,1.85
2022-12-12T05:48:11.344Z,1.82
2022-12-12T05:50:39.555Z,1.85
2022-12-12T05:53:08.094Z,1.85
2022-12-12T05:55:36.938Z,1.85
2022-12-12T05:58:05.236Z,1.82
2022-12-12T06:00:34.922Z,1.85
2022-12-12T06:03:03.172Z,1.84
2022-12-12T06:05:31.440Z,1.81
2022-12-12T06:07:59.801Z,1.80
2022-12-12T06:10:28.120Z,1.78
2022-12-12T06:12:56.362Z,1.79
2022-12-12T06:15:24.925Z,1.81
2022-12-12T06:17:56.980Z,1.82
2022-12-12T06:20:25.440Z,1.83
2022-12-12T06:22:54.140Z,1.85
2022-12-12T06:25:22.595Z,1.85
2022-12-12T06:27:51.040Z,1.84
2022-12-12T06:30:19.560Z,1.82
2022-12-12T06:32:47.890Z,1.75
2022-12-12T06:35:17.705Z,1.65
2022-12-12T06:37:45.930Z,1.54
2022-12-12T06:40:14.807Z,1.41
2022-12-12T06:42:48.253Z,1.30
2022-12-12T06:45:17.401Z,1.19
2022-12-12T06:47:45.715Z,1.10
2022-12-12T06:50:15.832Z,0.96
2022-12-12T06:52:47.741Z,0.92
2022-12-12T06:55:16.121Z,0.88
2022-12-12T06:57:44.451Z,0.88
2022-12-12T07:00:13.981Z,0.88
2022-12-12T07:02:42.360Z,0.88
2022-12-12T07:05:11.382Z,0.85
2022-12-12T07:07:39.830Z,0.82
2022-12-12T07:10:10.333Z,0.80
2022-12-12T07:12:39.700Z,0.80
2022-12-12T07:15:08.893Z,0.82
2022-12-12T07:17:37.251Z,0.84
2022-12-12T07:20:06.234Z,0.88
2022-12-12T07:22:34.679Z,0.92
2022-12-12T07:25:02.949Z,0.95
2022-12-12T07:27:32.934Z,0.99
2022-12-12T07:30:01.200Z,1.01
2022-12-12T07:32:29.432Z,1.03
2022-12-12T07:34:58.380Z,1.10
2022-12-12T07:37:27.015Z,1.14
2022-12-12T07:39:55.340Z,1.17
2022-12-12T07:42:23.605Z,1.19
2022-12-12T07:44:53.315Z,1.25
2022-12-12T07:47:21.676Z,1.26
2022-12-12T07:49:50.048Z,1.28
2022-12-12T07:52:18.349Z,1.33
2022-12-12T07:54:46.586Z,1.35
2022-12-12T07:57:15.203Z,1.38
2022-12-12T07:59:43.736Z,1.42
2022-12-12T08:02:13.534Z,1.44
2022-12-12T08:04:41.926Z,1.48
2022-12-12T08:07:10.248Z,1.49
2022-12-12T08:09:38.946Z,1.52
2022-12-12T08:12:08.237Z,1.53
2022-12-12T08:14:38.077Z,1.57
2022-12-12T08:17:06.602Z,1.61
2022-12-12T08:19:36.279Z,1.65
2022-12-12T08:22:04.728Z,1.64
2022-12-12T08:24:33.055Z,1.73
2022-12-12T08:27:01.832Z,1.79
2022-12-12T08:29:30.176Z,1.85
2022-12-12T08:31:58.674Z,1.90
2022-12-12T08:34:27.379Z,1.88
2022-12-12T08:36:57.055Z,1.81
2022-12-12T08:39:25.378Z,1.73
2022-12-12T08:41:53.726Z,1.65
2022-12-12T08:44:23.048Z,1.56
2022-12-12T08:46:51.515Z,1.59
2022-12-12T08:49:20.225Z,1.60
2022-12-12T08:51:48.677Z,1.67
2022-12-12T08:54:18.900Z,1.76
2022-12-12T08:56:47.568Z,1.79
2022-12-12T08:59:16.237Z,1.84
2022-12-12T09:01:44.769Z,1.88
2022-12-12T09:04:14.689Z,1.88
2022-12-12T09:06:43.678Z,1.87
2022-12-12T09:09:11.993Z,1.82
2022-12-12T09:11:41.727Z,1.84
2022-12-12T09:14:10.719Z,1.84
2022-12-12T09:16:39.066Z,1.85
2022-12-12T09:19:07.515Z,1.91
2022-12-12T09:21:35.978Z,1.98
2022-12-12T09:24:08.024Z,2.09
2022-12-12T09:26:36.873Z,2.26
2022-12-12T09:29:07.045Z,2.41
2022-12-12T09:31:35.516Z,2.54
2022-12-12T09:34:03.961Z,2.59
2022-12-12T09:36:32.329Z,2.59
2022-12-12T09:39:00.658Z,2.54
2022-12-12T09:41:30.808Z,2.52
2022-12-12T09:44:03.588Z,2.53
2022-12-12T09:46:38.620Z,2.55
2022-12-12T09:49:15.928Z,2.53
2022-12-12T09:51:48.762Z,2.49
2022-12-12T09:54:20.581Z,2.45
2022-12-12T09:57:12.231Z,2.37
2022-12-12T09:59:45.732Z,2.27
2022-12-12T10:02:38.747Z,2.17
2022-12-12T10:05:21.694Z,2.14
2022-12-12T10:08:00.564Z,2.12
2022-12-12T10:10:33.086Z,2.13
2022-12-12T10:13:06.199Z,2.16
2022-12-12T10:15:40.059Z,2.20
2022-12-12T10:18:17.645Z,2.23
2022-12-12T10:20:51.634Z,2.22
2022-12-12T10:23:30.464Z,2.23
2022-12-12T10:26:03.305Z,2.25
2022-12-12T10:28:33.843Z,2.32
2022-12-12T10:31:30.237Z,2.37
2022-12-12T10:34:23.541Z,2.39
2022-12-12T10:37:11.047Z,2.43
2022-12-12T10:39:51.027Z,2.46
2022-12-12T10:42:28.084Z,2.49
2022-12-12T10:45:19.420Z,2.53
2022-12-12T10:47:49.036Z,2.61
2022-12-12T10:50:28.534Z,2.67
2022-12-12T10:52:56.888Z,2.75
2022-12-12T10:55:41.877Z,2.81
2022-12-12T10:58:10.283Z,2.90
2022-12-12T11:00:41.798Z,2.98
2022-12-12T11:03:22.665Z,3.03
2022-12-12T11:05:52.628Z,3.06
2022-12-12T11:08:27.175Z,3.12
2022-12-12T11:11:08.641Z,3.17
2022-12-12T11:13:50.313Z,3.20
2022-12-12T11:16:22.131Z,3.25
2022-12-12T11:19:05.054Z,3.31
2022-12-12T11:21:37.492Z,3.39
2022-12-12T11:24:10.649Z,3.42
2022-12-12T11:26:46.856Z,3.49
2022-12-12T11:29:35.510Z,3.53
2022-12-12T11:32:05.024Z,3.57
2022-12-12T11:34:36.516Z,3.59
2022-12-12T11:37:06.271Z,3.55
2022-12-12T11:39:43.663Z,3.51
2022-12-12T11:42:30.372Z,3.51
2022-12-12T11:45:02.626Z,3.52
2022-12-12T11:47:38.669Z,3.56
2022-12-12T11:50:23.779Z,3.58
2022-12-12T11:52:56.765Z,3.58
2022-12-12T11:55:37.643Z,3.62
2022-12-12T11:58:20.516Z,3.59
2022-12-12T12:00:59.159Z,3.57
2022-12-12T12:03:40.067Z,3.55
2022-12-12T12:06:37.817Z,3.46
2022-12-12T12:09:24.493Z,3.37
2022-12-12T12:12:05.284Z,3.28
2022-12-12T12:15:17.669Z,3.14
2022-12-12T12:18:13.028Z,3.06
2022-12-12T12:21:07.411Z,3.03
2022-12-12T12:23:50.271Z,2.95
2022-12-12T12:26:41.231Z,2.89
2022-12-12T12:29:33.961Z,2.89
2022-12-12T12:32:12.599Z,2.89
2022-12-12T12:34:56.255Z,2.91
2022-12-12T12:37:43.521Z,2.99
2022-12-12T12:40:28.216Z,3.10
2022-12-12T12:43:18.259Z,3.19
2022-12-12T12:45:54.042Z,3.27
2022-12-12T12:48:29.711Z,3.29
2022-12-12T12:51:07.179Z,3.33
2022-12-12T12:53:41.877Z,3.37
2022-12-12T12:56:26.227Z,3.38
2022-12-12T12:59:01.564Z,3.42
2022-12-12T13:01:36.461Z,3.50
2022-12-12T13:04:15.462Z,3.54
2022-12-12T13:06:49.368Z,3.57
2022-12-12T13:09:29.673Z,3.58
2022-12-12T13:12:05.606Z,3.65
2022-12-12T13:14:49.119Z,3.64
2022-12-12T13:17:21.783Z,3.55
2022-12-12T13:19:53.486Z,3.52
2022-12-12T13:22:34.558Z,3.59
2022-12-12T13:25:14.983Z,3.70
2022-12-12T13:27:47.940Z,3.69
2022-12-12T13:30:24.184Z,3.67
2022-12-12T13:33:12.094Z,3.67
2022-12-12T13:35:47.006Z,3.66
2022-12-12T13:38:21.702Z,3.60
2022-12-12T13:40:58.670Z,3.54
2022-12-12T13:43:32.035Z,3.46
2022-12-12T13:46:40.270Z,3.37
2022-12-12T13:49:28.435Z,3.32
2022-12-12T13:52:27.880Z,3.25
2022-12-12T13:55:22.661Z,3.21
2022-12-12T13:58:35.534Z,3.15
2022-12-12T14:01:32.043Z,3.11
2022-12-12T14:04:03.707Z,3.07
2022-12-12T14:06:32.793Z,3.08
2022-12-12T14:09:01.422Z,3.07
2022-12-12T14:11:34.901Z,3.03
2022-12-12T14:14:17.822Z,2.96
2022-12-12T14:16:56.617Z,2.91
2022-12-12T14:19:37.802Z,2.85
2022-12-12T14:22:06.123Z,2.80
2022-12-12T14:25:07.206Z,2.71
2022-12-12T14:28:15.777Z,2.65
2022-12-12T14:30:50.426Z,2.59
2022-12-12T14:34:14.137Z,2.59
2022-12-12T14:37:22.913Z,2.60
2022-12-12T14:40:14.864Z,2.58
2022-12-12T14:43:19.385Z,2.55
2022-12-12T14:45:40.895Z,2.53
2022-12-12T14:48:22.843Z,2.51
2022-12-12T14:51:00.234Z,2.46
2022-12-12T14:53:35.442Z,2.42
2022-12-12T14:56:09.588Z,2.37
2022-12-12T14:58:42.061Z,2.32
2022-12-12T15:01:10.925Z,2.28
2022-12-12T15:03:44.033Z,2.24
2022-12-12T15:06:37.011Z,2.17
2022-12-12T15:09:17.846Z,2.10
2022-12-12T15:11:47.191Z,2.02
2022-12-12T15:14:26.950Z,1.95
2022-12-12T15:17:01.760Z,1.86
2022-12-12T15:19:35.655Z,1.77
2022-12-12T15:22:05.783Z,1.63
2022-12-12T15:24:40.643Z,1.52
2022-12-12T15:27:09.187Z,1.37
2022-12-12T15:29:39.216Z,1.20
2022-12-12T15:32:17.898Z,1.03
2022-12-12T15:34:49.920Z,0.88
2022-12-12T15:37:26.140Z,0.74
2022-12-12T15:40:21.094Z,0.58
2022-12-12T15:42:55.492Z,0.47
2022-12-12T15:45:28.986Z,0.36
2022-12-12T15:47:58.018Z,0.25
2022-12-12T15:50:31.083Z,0.16
2022-12-12T15:53:07.842Z,0.06
2022-12-12T15:55:37.914Z,-0.03
2022-12-12T15:58:06.302Z,-0.12
2022-12-12T16:00:40.470Z,-0.21
2022-12-12T16:03:23.466Z,-0.28
2022-12-12T16:06:06.506Z,-0.35
2022-12-12T16:08:48.105Z,-0.38
2022-12-12T16:11:43.092Z,-0.48
2022-12-12T16:14:42.793Z,-0.57
2022-12-12T16:17:14.714Z,-0.61
2022-12-12T16:19:56.495Z,-0.65
2022-12-12T16:22:35.753Z,-0.72
2022-12-12T16:25:19.935Z,-0.77
2022-12-12T16:27:57.706Z,-0.83
2022-12-12T16:30:27.275Z,-0.83
2022-12-12T16:32:56.039Z,-0.84
2022-12-12T16:35:26.056Z,-0.86
2022-12-12T16:37:54.445Z,-0.88
2022-12-12T16:40:23.377Z,-0.93
2022-12-12T16:42:56.974Z,-0.99
2022-12-12T16:45:25.384Z,-1.03
2022-12-12T16:47:53.895Z,-1.08
2022-12-12T16:50:22.473Z,-1.10
2022-12-12T16:52:50.775Z,-1.13
2022-12-12T16:55:24.599Z,-1.11
2022-12-12T16:57:54.276Z,-1.13
2022-12-12T17:00:22.838Z,-1.13
2022-12-12T17:02:51.134Z,-1.15
2022-12-12T17:05:23.743Z,-1.17
2022-12-12T17:07:53.439Z,-1.20
2022-12-12T17:10:24.587Z,-1.23
2022-12-12T17:12:55.475Z,-1.27
2022-12-12T17:15:27.662Z,-1.31
2022-12-12T17:17:56.861Z,-1.34
2022-12-12T17:20:26.261Z,-1.35
2022-12-12T17:22:55.601Z,-1.38
2022-12-12T17:25:24.832Z,-1.43
2022-12-12T17:27:54.734Z,-1.45
2022-12-12T17:30:23.356Z,-1.49
2022-12-12T17:35:37.802Z,-1.48
2022-12-12T17:38:09.182Z,-1.50
2022-12-12T17:40:44.387Z,-1.53
2022-12-12T17:43:14.192Z,-1.56
2022-12-12T17:45:42.539Z,-1.59
2022-12-12T17:48:10.959Z,-1.59
2022-12-12T17:50:41.771Z,-1.55
2022-12-12T17:53:10.606Z,-1.55
2022-12-12T17:55:51.715Z,-1.43
2022-12-12T17:58:28.001Z,-1.38
2022-12-12T18:00:57.985Z,-1.37
2022-12-12T18:03:26.421Z,-1.35
2022-12-12T18:05:54.671Z,-1.34
2022-12-12T18:08:23.017Z,-1.29
2022-12-12T18:10:51.366Z,-1.23
2022-12-12T18:13:21.090Z,-1.14
2022-12-12T18:15:56.269Z,-1.09
2022-12-12T18:18:26.347Z,-1.07
2022-12-12T18:20:54.778Z,-1.06
2022-12-12T18:23:23.375Z,-1.11
2022-12-12T18:25:51.595Z,-1.13
2022-12-12T18:28:21.271Z,-1.17
2022-12-12T18:30:51.054Z,-1.23
2022-12-12T18:33:19.422Z,-1.26
2022-12-12T18:35:47.672Z,-1.28
2022-12-12T18:38:16.942Z,-1.31
2022-12-12T18:40:45.244Z,-1.35
2022-12-12T18:43:13.490Z,-1.41
2022-12-12T18:45:43.093Z,-1.48
2022-12-12T18:48:11.480Z,-1.51
2022-12-12T18:50:39.778Z,-1.60
2022-12-12T18:53:08.630Z,-1.59
2022-12-12T18:55:41.838Z,-1.63
2022-12-12T18:58:10.933Z,-1.61
2022-12-12T19:00:40.302Z,-1.66
2022-12-12T19:03:10.505Z,-1.71
2022-12-12T19:05:43.080Z,-1.76
2022-12-12T19:08:14.658Z,-1.80
2022-12-12T19:10:42.874Z,-1.81
2022-12-12T19:13:11.231Z,-1.82
2022-12-12T19:15:40.683Z,-1.82
2022-12-12T19:18:10.644Z,-1.79
2022-12-12T19:20:38.972Z,-1.78
2022-12-12T19:23:07.285Z,-1.79
2022-12-12T19:25:42.602Z,-1.78
2022-12-12T19:28:12.362Z,-1.80
2022-12-12T19:30:44.080Z,-1.81
2022-12-12T19:33:13.792Z,-1.81
2022-12-12T19:35:42.104Z,-1.80
2022-12-12T19:38:10.495Z,-1.83
2022-12-12T19:40:38.896Z,-1.82
2022-12-12T19:43:07.168Z,-1.76
2022-12-12T19:45:35.566Z,-1.67
2022-12-12T19:48:03.848Z,-1.62
2022-12-12T19:50:33.527Z,-1.63
2022-12-12T19:53:01.821Z,-1.68
2022-12-12T19:55:30.167Z,-1.75
2022-12-12T19:58:00.486Z,-1.85
2022-12-12T20:00:28.853Z,-1.96
2022-12-12T20:02:58.318Z,-2.04
2022-12-12T20:05:26.695Z,-2.10
2022-12-12T20:07:57.825Z,-2.16
2022-12-12T20:10:26.084Z,-2.22
2022-12-12T20:12:58.545Z,-2.31
2022-12-12T20:15:27.524Z,-2.37
2022-12-12T20:18:00.189Z,-2.42
2022-12-12T20:20:28.794Z,-2.49
2022-12-12T20:22:58.534Z,-2.55
2022-12-12T20:25:26.891Z,-2.60
2022-12-12T20:27:55.203Z,-2.65
2022-12-12T20:30:23.425Z,-2.68
2022-12-12T20:32:52.080Z,-2.74
2022-12-12T20:35:20.399Z,-2.78
2022-12-12T20:37:48.891Z,-2.83
2022-12-12T20:40:18.803Z,-2.83
2022-12-12T20:42:54.980Z,-2.85
2022-12-12T20:45:25.541Z,-2.88
2022-12-12T20:47:53.963Z,-2.88
2022-12-12T20:50:22.387Z,-2.91
2022-12-12T20:52:50.726Z,-2.91
2022-12-12T20:55:20.338Z,-2.94
2022-12-12T20:57:48.606Z,-2.97
2022-12-12T21:00:17.534Z,-3.00
2022-12-12T21:02:45.812Z,-3.04
2022-12-12T21:05:14.462Z,-3.09
2022-12-12T21:07:43.058Z,-3.08
2022-12-12T21:10:11.531Z,-3.12
2022-12-12T21:12:41.282Z,-3.15
2022-12-12T21:15:10.743Z,-3.18
2022-12-12T21:17:39.072Z,-3.20
2022-12-12T21:20:09.011Z,-3.22
2022-12-12T21:22:37.311Z,-3.19
2022-12-12T21:25:06.366Z,-3.18
2022-12-12T21:27:34.646Z,-3.17
2022-12-12T21:30:05.654Z,-3.18
2022-12-12T21:32:34.097Z,-3.20
2022-12-12T21:35:02.365Z,-3.20
2022-12-12T21:37:31.916Z,-3.22
2022-12-12T21:40:02.923Z,-3.25
2022-12-12T21:42:31.359Z,-3.28
2022-12-12T21:44:59.988Z,-3.31
2022-12-12T21:47:29.789Z,-3.33
2022-12-12T21:49:58.087Z,-3.36
2022-12-12T21:52:26.314Z,-3.34
2022-12-12T21:54:55.008Z,-3.34
2022-12-12T21:57:25.089Z,-3.36
2022-12-12T21:59:53.672Z,-3.38
2022-12-12T22:02:22.033Z,-3.39
2022-12-12T22:04:51.746Z,-3.41
2022-12-12T22:07:20.878Z,-3.39
2022-12-12T22:09:57.441Z,-3.39
2022-12-12T22:12:37.491Z,-3.39
2022-12-12T22:15:06.993Z,-3.37
2022-12-12T22:17:35.274Z,-3.39
2022-12-12T22:20:05.490Z,-3.39
2022-12-12T22:22:33.904Z,-3.42
2022-12-12T22:25:02.190Z,-3.42
2022-12-12T22:27:31.047Z,-3.41
2022-12-12T22:29:59.379Z,-3.43
2022-12-12T22:32:29.360Z,-3.40
2022-12-12T22:34:58.567Z,-3.42
2022-12-12T22:37:28.237Z,-3.42
2022-12-12T22:39:56.534Z,-3.43
2022-12-12T22:42:24.868Z,-3.44
2022-12-12T22:44:53.486Z,-3.45
2022-12-12T22:47:23.796Z,-3.48
2022-12-12T22:49:52.952Z,-3.50
2022-12-12T22:52:21.232Z,-3.52
2022-12-12T22:54:50.855Z,-3.53
2022-12-12T22:57:19.227Z,-3.54
2022-12-12T22:59:47.627Z,-3.54
2022-12-12T23:02:21.526Z,-3.57
2022-12-12T23:04:53.137Z,-3.60
2022-12-12T23:07:21.527Z,-3.61
2022-12-12T23:09:54.254Z,-3.61
2022-12-12T23:12:23.288Z,-3.62
2022-12-12T23:14:51.499Z,-3.60
2022-12-12T23:17:19.880Z,-3.54
2022-12-12T23:19:48.367Z,-3.54
2022-12-12T23:22:16.593Z,-3.51
2022-12-12T23:24:45.111Z,-3.48
2022-12-12T23:27:14.776Z,-3.44
2022-12-12T23:29:43.611Z,-3.45
2022-12-12T23:32:12.208Z,-3.42
2022-12-12T23:34:40.838Z,-3.44
2022-12-12T23:37:09.459Z,-3.44
2022-12-12T23:39:37.932Z,-3.46
2022-12-12T23:42:06.398Z,-3.45
2022-12-12T23:44:36.114Z,-3.44
2022-12-12T23:47:04.373Z,-3.46
2022-12-12T23:49:32.613Z,-3.44
2022-12-12T23:52:02.421Z,-3.41
2022-12-12T23:54:33.689Z,-3.31
2022-12-12T23:57:03.308Z,-3.25
2022-12-12T23:59:32.202Z,-3.18
